Big Piney, WY weather

Big Piney-Marbleton Airport (AMOS), Big Piney, WY: 9/19/2014 00:53
Visibility10 statute milessun with broken clouds
View 7-Day Forecast
Area Summary
Sky/CloudsBroken at 9000ft
Weather [last 24 hours]None [thunderstorm began 23:53; rain began 00:05, thunderstorm ended 00:08; rain began 00:05 ended 00:41, thunderstorm ended 00:08 ]
Pressure30.12 in.Hg (1020 hPa)
Dew Point46 F (7.8 C)
Relative Humidity71.6 %
Hourly Precipitation0.03 in. (0.762 mm)
Last 24-Hour Precip.0.09 in. (2.286 mm)
Reading TimePrecipitation
24-hr ending 9/18@05:530.02 in. (0.508 mm)
Temperature55 F (12.8 C)red thermometer
Reading TimeMinimum to Maximum Temperature
6-hr ending 9/18@23:5355.9 F to 73.9 F (13.3 C to 23.3 C)
6-hr ending 9/18@17:5369.1 F to 82.9 F (20.6 C to 28.3 C)
6-hr ending 9/18@11:5337 F to 69.1 F (2.8 C to 20.6 C)
6-hr ending 9/18@05:5339 F to 46 F (3.9 C to 7.8 C)
24-hr ending 9/19@00:5337 F to 82.9 F (2.8 C to 28.3 C)
Wind9.21 MPH (8 KT) green arrow pointing 337.5 degrees
Wind FromNorth/Northwest (330 Degrees)
Rolling 24-hr Peak Wind39.1 MPH (34 KT) on 9/18@21:22
Rolling 24-hr Peak Wind FromNorth (360 Degrees)
Twilight Begins06:37Sunshine Yesterday
Sunrise07:05N/A
Sunset19:21
Twilight Ends19:50
METARKBPI 190653Z AUTO 33008KT 10SM BKN090 13/08 A3012 RMK AO2 RAB0554E41 TSE08 SLP098 P0003 T01280078 402830028
Tags: